sensor_id;sensor_type;location;lat;lon;timestamp;pressure;altitude;pressure_sealevel;temperature;humidity
44131;BME280;29792;48.726;9.248;2023-04-27T00:00:26;96969.47;;;9.32;67.90
44131;BME280;29792;48.726;9.248;2023-04-27T00:02:51;96962.56;;;9.33;68.05
44131;BME280;29792;48.726;9.248;2023-04-27T00:05:17;96965.13;;;9.33;67.82
44131;BME280;29792;48.726;9.248;2023-04-27T00:07:42;96969.31;;;9.34;67.79
44131;BME280;29792;48.726;9.248;2023-04-27T00:10:08;96969.47;;;9.32;68.06
44131;BME280;29792;48.726;9.248;2023-04-27T00:12:33;96966.91;;;9.32;68.88
44131;BME280;29792;48.726;9.248;2023-04-27T00:14:58;96963.53;;;9.32;69.68
44131;BME280;29792;48.726;9.248;2023-04-27T00:17:24;96958.41;;;9.32;69.80
44131;BME280;29792;48.726;9.248;2023-04-27T00:19:49;96959.34;;;9.31;69.60
44131;BME280;29792;48.726;9.248;2023-04-27T00:22:14;96950.88;;;9.30;69.44
44131;BME280;29792;48.726;9.248;2023-04-27T00:24:40;96956.09;;;9.29;69.17
44131;BME280;29792;48.726;9.248;2023-04-27T00:27:06;96957.72;;;9.30;69.63
44131;BME280;29792;48.726;9.248;2023-04-27T00:29:31;96951.09;;;9.27;69.04
44131;BME280;29792;48.726;9.248;2023-04-27T00:31:56;96953.63;;;9.27;69.64
44131;BME280;29792;48.726;9.248;2023-04-27T00:34:21;96954.56;;;9.26;69.12
44131;BME280;29792;48.726;9.248;2023-04-27T00:36:47;96952.94;;;9.25;69.51
44131;BME280;29792;48.726;9.248;2023-04-27T00:39:12;96959.00;;;9.24;70.58
44131;BME280;29792;48.726;9.248;2023-04-27T00:41:37;96947.25;;;9.22;70.79
44131;BME280;29792;48.726;9.248;2023-04-27T00:44:06;96948.41;;;9.17;70.20
44131;BME280;29792;48.726;9.248;2023-04-27T00:46:34;96947.03;;;9.13;70.68
44131;BME280;29792;48.726;9.248;2023-04-27T00:49:00;96939.47;;;9.12;71.41
44131;BME280;29792;48.726;9.248;2023-04-27T00:51:26;96940.50;;;9.09;71.18
44131;BME280;29792;48.726;9.248;2023-04-27T00:53:56;96936.47;;;9.07;71.58
44131;BME280;29792;48.726;9.248;2023-04-27T00:56:22;96938.41;;;9.03;71.47
44131;BME280;29792;48.726;9.248;2023-04-27T00:58:47;96941.19;;;9.00;72.12
44131;BME280;29792;48.726;9.248;2023-04-27T01:01:13;96935.41;;;8.98;72.31
44131;BME280;29792;48.726;9.248;2023-04-27T01:03:38;96938.06;;;8.97;73.22
44131;BME280;29792;48.726;9.248;2023-04-27T01:06:04;96940.63;;;8.97;74.24
44131;BME280;29792;48.726;9.248;2023-04-27T01:08:29;96940.72;;;8.95;74.74
44131;BME280;29792;48.726;9.248;2023-04-27T01:10:54;96936.66;;;8.93;75.16
44131;BME280;29792;48.726;9.248;2023-04-27T01:13:20;96941.91;;;8.91;75.42
44131;BME280;29792;48.726;9.248;2023-04-27T01:15:45;96933.63;;;8.88;76.42
44131;BME280;29792;48.726;9.248;2023-04-27T01:18:10;96940.50;;;8.87;76.67
44131;BME280;29792;48.726;9.248;2023-04-27T01:20:36;96947.22;;;8.88;76.99
44131;BME280;29792;48.726;9.248;2023-04-27T01:23:02;96942.34;;;8.85;76.66
44131;BME280;29792;48.726;9.248;2023-04-27T01:25:27;96941.75;;;8.82;76.50
44131;BME280;29792;48.726;9.248;2023-04-27T01:27:53;96949.53;;;8.80;77.41
44131;BME280;29792;48.726;9.248;2023-04-27T01:30:18;96944.63;;;8.77;78.19
44131;BME280;29792;48.726;9.248;2023-04-27T01:32:44;96946.53;;;8.75;78.30
44131;BME280;29792;48.726;9.248;2023-04-27T01:35:09;96946.72;;;8.72;77.90
44131;BME280;29792;48.726;9.248;2023-04-27T01:37:35;96949.41;;;8.70;77.61
44131;BME280;29792;48.726;9.248;2023-04-27T01:40:01;96951.25;;;8.68;77.82
44131;BME280;29792;48.726;9.248;2023-04-27T01:42:26;96942.91;;;8.66;78.43
44131;BME280;29792;48.726;9.248;2023-04-27T01:44:51;96942.31;;;8.63;78.64
44131;BME280;29792;48.726;9.248;2023-04-27T01:47:17;96945.06;;;8.60;79.30
44131;BME280;29792;48.726;9.248;2023-04-27T01:49:43;96943.78;;;8.54;79.68
44131;BME280;29792;48.726;9.248;2023-04-27T01:52:08;96943.22;;;8.51;80.17
44131;BME280;29792;48.726;9.248;2023-04-27T01:54:34;96940.06;;;8.47;79.98
44131;BME280;29792;48.726;9.248;2023-04-27T01:56:59;96939.44;;;8.43;80.03
44131;BME280;29792;48.726;9.248;2023-04-27T01:59:25;96947.34;;;8.40;80.17
44131;BME280;29792;48.726;9.248;2023-04-27T02:01:51;96946.75;;;8.37;80.42
44131;BME280;29792;48.726;9.248;2023-04-27T02:04:16;96957.06;;;8.35;80.31
44131;BME280;29792;48.726;9.248;2023-04-27T02:06:41;96954.50;;;8.35;80.24
44131;BME280;29792;48.726;9.248;2023-04-27T02:09:07;96953.00;;;8.33;80.70
44131;BME280;29792;48.726;9.248;2023-04-27T02:11:32;96953.13;;;8.31;80.43
44131;BME280;29792;48.726;9.248;2023-04-27T02:13:57;96955.75;;;8.30;80.24
44131;BME280;29792;48.726;9.248;2023-04-27T02:16:22;96962.69;;;8.28;80.60
44131;BME280;29792;48.726;9.248;2023-04-27T02:18:48;96960.25;;;8.26;80.68
44131;BME280;29792;48.726;9.248;2023-04-27T02:21:13;96957.81;;;8.25;80.69
44131;BME280;29792;48.726;9.248;2023-04-27T02:23:38;96964.66;;;8.24;80.34
44131;BME280;29792;48.726;9.248;2023-04-27T02:26:04;96965.56;;;8.23;81.03
44131;BME280;29792;48.726;9.248;2023-04-27T02:28:30;96964.75;;;8.23;80.94
44131;BME280;29792;48.726;9.248;2023-04-27T02:30:56;96963.22;;;8.20;81.24
44131;BME280;29792;48.726;9.248;2023-04-27T02:33:21;96964.97;;;8.20;81.36
44131;BME280;29792;48.726;9.248;2023-04-27T02:35:46;96964.16;;;8.19;81.45
44131;BME280;29792;48.726;9.248;2023-04-27T02:38:12;96971.13;;;8.17;81.30
44131;BME280;29792;48.726;9.248;2023-04-27T02:40:37;96965.31;;;8.15;81.52
44131;BME280;29792;48.726;9.248;2023-04-27T02:43:02;96974.78;;;8.13;80.95
44131;BME280;29792;48.726;9.248;2023-04-27T02:45:28;96979.19;;;8.11;81.36
44131;BME280;29792;48.726;9.248;2023-04-27T02:47:53;96978.41;;;8.11;81.71
44131;BME280;29792;48.726;9.248;2023-04-27T02:50:19;96975.03;;;8.10;81.35
44131;BME280;29792;48.726;9.248;2023-04-27T02:52:44;96978.41;;;8.11;82.00
44131;BME280;29792;48.726;9.248;2023-04-27T02:55:09;96980.13;;;8.10;82.30
44131;BME280;29792;48.726;9.248;2023-04-27T02:57:35;96977.59;;;8.10;82.28
44131;BME280;29792;48.726;9.248;2023-04-27T03:00:00;96978.41;;;8.11;81.93
44131;BME280;29792;48.726;9.248;2023-04-27T03:02:26;96976.75;;;8.10;82.72
44131;BME280;29792;48.726;9.248;2023-04-27T03:04:52;96980.94;;;8.11;82.77
44131;BME280;29792;48.726;9.248;2023-04-27T03:07:19;96982.56;;;8.12;82.59
44131;BME280;29792;48.726;9.248;2023-04-27T03:09:45;96980.94;;;8.11;83.11
44131;BME280;29792;48.726;9.248;2023-04-27T03:12:10;96983.50;;;8.11;83.22
44131;BME280;29792;48.726;9.248;2023-04-27T03:14:35;96975.94;;;8.09;83.13
44131;BME280;29792;48.726;9.248;2023-04-27T03:17:01;96975.25;;;8.07;83.60
44131;BME280;29792;48.726;9.248;2023-04-27T03:19:27;96978.50;;;8.09;84.02
44131;BME280;29792;48.726;9.248;2023-04-27T03:21:52;96982.78;;;8.09;84.61
44131;BME280;29792;48.726;9.248;2023-04-27T03:24:17;96973.41;;;8.09;85.23
44131;BME280;29792;48.726;9.248;2023-04-27T03:26:43;96980.13;;;8.10;85.37
44131;BME280;29792;48.726;9.248;2023-04-27T03:29:08;96975.94;;;8.09;85.84
44131;BME280;29792;48.726;9.248;2023-04-27T03:31:34;96977.59;;;8.10;86.40
44131;BME280;29792;48.726;9.248;2023-04-27T03:33:59;96982.69;;;8.10;86.11
44131;BME280;29792;48.726;9.248;2023-04-27T03:36:24;96981.06;;;8.09;86.58
44131;BME280;29792;48.726;9.248;2023-04-27T03:38:51;96979.31;;;8.10;86.92
44131;BME280;29792;48.726;9.248;2023-04-27T03:41:16;96975.94;;;8.09;87.42
44131;BME280;29792;48.726;9.248;2023-04-27T03:43:41;96975.13;;;8.09;87.52
44131;BME280;29792;48.726;9.248;2023-04-27T03:46:07;96973.50;;;8.08;87.93
44131;BME280;29792;48.726;9.248;2023-04-27T03:48:32;96978.72;;;8.06;87.83
44131;BME280;29792;48.726;9.248;2023-04-27T03:50:59;96983.81;;;8.06;88.88
44131;BME280;29792;48.726;9.248;2023-04-27T03:53:24;96980.34;;;8.07;88.72
44131;BME280;29792;48.726;9.248;2023-04-27T03:55:50;96983.00;;;8.05;89.18
44131;BME280;29792;48.726;9.248;2023-04-27T03:58:15;96981.34;;;8.04;88.90
44131;BME280;29792;48.726;9.248;2023-04-27T04:00:41;96984.72;;;8.05;89.06
44131;BME280;29792;48.726;9.248;2023-04-27T04:03:07;96986.47;;;8.04;89.97
44131;BME280;29792;48.726;9.248;2023-04-27T04:05:32;96979.53;;;8.07;89.94
44131;BME280;29792;48.726;9.248;2023-04-27T04:07:58;96982.19;;;8.05;89.58
44131;BME280;29792;48.726;9.248;2023-04-27T04:10:23;96981.34;;;8.04;89.98
44131;BME280;29792;48.726;9.248;2023-04-27T04:12:49;96985.66;;;8.04;90.23
44131;BME280;29792;48.726;9.248;2023-04-27T04:15:14;96984.00;;;8.03;90.42
44131;BME280;29792;48.726;9.248;2023-04-27T04:17:40;96988.19;;;8.04;90.70
44131;BME280;29792;48.726;9.248;2023-04-27T04:20:06;96991.56;;;8.04;91.27
44131;BME280;29792;48.726;9.248;2023-04-27T04:22:36;96988.31;;;8.02;90.48
44131;BME280;29792;48.726;9.248;2023-04-27T04:25:01;96983.22;;;8.02;91.03
44131;BME280;29792;48.726;9.248;2023-04-27T04:27:26;96990.97;;;8.01;90.98
44131;BME280;29792;48.726;9.248;2023-04-27T04:29:52;96986.78;;;8.00;91.27
44131;BME280;29792;48.726;9.248;2023-04-27T04:32:17;97004.66;;;8.00;91.51
44131;BME280;29792;48.726;9.248;2023-04-27T04:34:47;97003.03;;;7.99;91.50
44131;BME280;29792;48.726;9.248;2023-04-27T04:37:15;96998.72;;;7.99;91.84
44131;BME280;29792;48.726;9.248;2023-04-27T04:39:40;97000.56;;;7.97;92.49
44131;BME280;29792;48.726;9.248;2023-04-27T04:42:06;97008.84;;;8.01;93.59
44131;BME280;29792;48.726;9.248;2023-04-27T04:44:31;97001.19;;;8.01;94.38
44131;BME280;29792;48.726;9.248;2023-04-27T04:46:57;97003.84;;;7.99;94.17
44131;BME280;29792;48.726;9.248;2023-04-27T04:49:22;97008.13;;;7.99;94.04
44131;BME280;29792;48.726;9.248;2023-04-27T04:51:47;97001.38;;;7.98;94.75
44131;BME280;29792;48.726;9.248;2023-04-27T04:54:12;97009.75;;;8.00;95.04
44131;BME280;29792;48.726;9.248;2023-04-27T04:56:38;97008.13;;;7.99;95.23
44131;BME280;29792;48.726;9.248;2023-04-27T04:59:03;97004.66;;;8.00;95.75
44131;BME280;29792;48.726;9.248;2023-04-27T05:01:28;97008.72;;;8.02;96.32
44131;BME280;29792;48.726;9.248;2023-04-27T05:03:54;97006.97;;;8.03;96.19
44131;BME280;29792;48.726;9.248;2023-04-27T05:06:19;97009.41;;;8.04;96.46
44131;BME280;29792;48.726;9.248;2023-04-27T05:08:45;96998.31;;;8.05;96.23
44131;BME280;29792;48.726;9.248;2023-04-27T05:11:10;97007.47;;;8.08;96.72
44131;BME280;29792;48.726;9.248;2023-04-27T05:13:35;97009.78;;;8.11;96.45
44131;BME280;29792;48.726;9.248;2023-04-27T05:16:03;97011.31;;;8.14;96.26
44131;BME280;29792;48.726;9.248;2023-04-27T05:18:28;97013.78;;;8.15;96.60
44131;BME280;29792;48.726;9.248;2023-04-27T05:20:54;97008.56;;;8.17;97.09
44131;BME280;29792;48.726;9.248;2023-04-27T05:23:20;97005.91;;;8.18;97.02
44131;BME280;29792;48.726;9.248;2023-04-27T05:25:45;97003.22;;;8.20;96.91
44131;BME280;29792;48.726;9.248;2023-04-27T05:28:10;97009.88;;;8.22;96.86
44131;BME280;29792;48.726;9.248;2023-04-27T05:30:36;97008.75;;;8.26;97.22
44131;BME280;29792;48.726;9.248;2023-04-27T05:33:02;97021.19;;;8.31;97.40
44131;BME280;29792;48.726;9.248;2023-04-27T05:35:28;97010.88;;;8.32;97.96
44131;BME280;29792;48.726;9.248;2023-04-27T05:37:53;97019.84;;;8.38;98.61
44131;BME280;29792;48.726;9.248;2023-04-27T05:40:19;97018.56;;;8.43;98.53
44131;BME280;29792;48.726;9.248;2023-04-27T05:42:47;97019.06;;;8.49;98.77
44131;BME280;29792;48.726;9.248;2023-04-27T05:45:13;97023.75;;;8.55;99.26
44131;BME280;29792;48.726;9.248;2023-04-27T05:47:38;97023.28;;;8.61;99.46
44131;BME280;29792;48.726;9.248;2023-04-27T05:50:04;97023.78;;;8.66;98.91
44131;BME280;29792;48.726;9.248;2023-04-27T05:52:30;97027.53;;;8.73;99.33
44131;BME280;29792;48.726;9.248;2023-04-27T05:54:56;97027.19;;;8.77;98.66
44131;BME280;29792;48.726;9.248;2023-04-27T05:57:25;97034.53;;;8.82;98.76
44131;BME280;29792;48.726;9.248;2023-04-27T05:59:51;97029.69;;;8.90;99.70
44131;BME280;29792;48.726;9.248;2023-04-27T06:02:17;97027.47;;;8.97;99.24
44131;BME280;29792;48.726;9.248;2023-04-27T06:04:42;97041.44;;;9.04;98.86
44131;BME280;29792;48.726;9.248;2023-04-27T06:07:12;97036.78;;;9.09;98.28
44131;BME280;29792;48.726;9.248;2023-04-27T06:09:38;97032.06;;;9.15;98.19
44131;BME280;29792;48.726;9.248;2023-04-27T06:12:04;97038.34;;;9.23;97.68
44131;BME280;29792;48.726;9.248;2023-04-27T06:14:31;97044.84;;;9.27;97.42
44131;BME280;29792;48.726;9.248;2023-04-27T06:16:57;97037.53;;;9.33;96.99
44131;BME280;29792;48.726;9.248;2023-04-27T06:19:22;97036.38;;;9.37;96.90
44131;BME280;29792;48.726;9.248;2023-04-27T06:21:47;97043.69;;;9.42;96.02
44131;BME280;29792;48.726;9.248;2023-04-27T06:24:13;97044.19;;;9.47;96.13
44131;BME280;29792;48.726;9.248;2023-04-27T06:26:38;97040.22;;;9.54;95.84
44131;BME280;29792;48.726;9.248;2023-04-27T06:29:03;97046.28;;;9.64;96.01
44131;BME280;29792;48.726;9.248;2023-04-27T06:31:29;97048.94;;;9.74;95.50
44131;BME280;29792;48.726;9.248;2023-04-27T06:33:54;97051.50;;;9.85;95.45
44131;BME280;29792;48.726;9.248;2023-04-27T06:36:20;97054.16;;;9.94;94.98
44131;BME280;29792;48.726;9.248;2023-04-27T06:38:45;97055.22;;;10.03;94.41
44131;BME280;29792;48.726;9.248;2023-04-27T06:41:11;97053.09;;;10.08;93.92
44131;BME280;29792;48.726;9.248;2023-04-27T06:43:36;97052.88;;;10.11;93.60
44131;BME280;29792;48.726;9.248;2023-04-27T06:46:02;97054.50;;;10.12;92.97
44131;BME280;29792;48.726;9.248;2023-04-27T06:48:27;97058.56;;;10.15;92.98
44131;BME280;29792;48.726;9.248;2023-04-27T06:50:52;97059.88;;;10.20;92.51
44131;BME280;29792;48.726;9.248;2023-04-27T06:53:17;97066.03;;;10.29;92.96
44131;BME280;29792;48.726;9.248;2023-04-27T06:55:43;97060.50;;;10.45;93.55
44131;BME280;29792;48.726;9.248;2023-04-27T06:58:08;97056.63;;;10.61;93.18
44131;BME280;29792;48.726;9.248;2023-04-27T07:00:33;97064.13;;;10.74;92.52
44131;BME280;29792;48.726;9.248;2023-04-27T07:02:59;97060.53;;;10.77;92.12
44131;BME280;29792;48.726;9.248;2023-04-27T07:05:24;97056.53;;;10.84;91.82
44131;BME280;29792;48.726;9.248;2023-04-27T07:07:50;97064.03;;;10.96;91.23
44131;BME280;29792;48.726;9.248;2023-04-27T07:10:15;97066.91;;;11.03;90.57
44131;BME280;29792;48.726;9.248;2023-04-27T07:12:41;97059.28;;;11.13;89.99
44131;BME280;29792;48.726;9.248;2023-04-27T07:15:07;97067.66;;;11.35;90.63
44131;BME280;29792;48.726;9.248;2023-04-27T07:17:33;97069.00;;;11.60;88.85
44131;BME280;29792;48.726;9.248;2023-04-27T07:19:58;97071.50;;;12.02;87.16
44131;BME280;29792;48.726;9.248;2023-04-27T07:22:25;97065.78;;;12.29;83.35
44131;BME280;29792;48.726;9.248;2023-04-27T07:24:50;97057.00;;;12.31;80.93
44131;BME280;29792;48.726;9.248;2023-04-27T07:27:16;97061.19;;;12.42;80.34
44131;BME280;29792;48.726;9.248;2023-04-27T07:29:41;97060.53;;;12.49;79.23
44131;BME280;29792;48.726;9.248;2023-04-27T07:32:07;97067.88;;;12.64;79.31
44131;BME280;29792;48.726;9.248;2023-04-27T07:34:33;97063.81;;;12.71;77.68
44131;BME280;29792;48.726;9.248;2023-04-27T07:36:59;97056.63;;;12.84;77.49
44131;BME280;29792;48.726;9.248;2023-04-27T07:39:25;97063.81;;;12.99;77.16
44131;BME280;29792;48.726;9.248;2023-04-27T07:41:51;97068.56;;;13.14;77.64
44131;BME280;29792;48.726;9.248;2023-04-27T07:44:17;97059.38;;;13.67;77.02
44131;BME280;29792;48.726;9.248;2023-04-27T07:46:46;97049.63;;;15.32;77.49
44131;BME280;29792;48.726;9.248;2023-04-27T07:49:13;97047.81;;;17.25;71.82
44131;BME280;29792;48.726;9.248;2023-04-27T07:51:38;97053.41;;;19.01;63.84
44131;BME280;29792;48.726;9.248;2023-04-27T07:54:04;97049.31;;;20.32;56.13
44131;BME280;29792;48.726;9.248;2023-04-27T07:56:30;97060.34;;;21.34;53.09
44131;BME280;29792;48.726;9.248;2023-04-27T07:58:55;97052.88;;;22.21;48.67
44131;BME280;29792;48.726;9.248;2023-04-27T08:01:21;97061.91;;;22.79;46.14
44131;BME280;29792;48.726;9.248;2023-04-27T08:03:46;97058.28;;;22.87;44.46
44131;BME280;29792;48.726;9.248;2023-04-27T08:06:12;97056.72;;;23.19;42.60
44131;BME280;29792;48.726;9.248;2023-04-27T08:08:37;97057.53;;;23.33;42.07
44131;BME280;29792;48.726;9.248;2023-04-27T08:11:02;97055.72;;;23.40;41.68
44131;BME280;29792;48.726;9.248;2023-04-27T08:13:28;97051.50;;;23.32;41.86
44131;BME280;29792;48.726;9.248;2023-04-27T08:15:53;97061.53;;;22.96;41.58
44131;BME280;29792;48.726;9.248;2023-04-27T08:18:23;97061.16;;;22.38;40.98
44131;BME280;29792;48.726;9.248;2023-04-27T08:20:48;97056.81;;;21.76;42.00
44131;BME280;29792;48.726;9.248;2023-04-27T08:23:13;97051.84;;;21.25;42.72
44131;BME280;29792;48.726;9.248;2023-04-27T08:25:39;97047.41;;;20.77;43.81
44131;BME280;29792;48.726;9.248;2023-04-27T08:28:04;97045.81;;;20.40;45.21
44131;BME280;29792;48.726;9.248;2023-04-27T08:30:29;97049.78;;;20.06;45.68
44131;BME280;29792;48.726;9.248;2023-04-27T08:32:55;97038.31;;;19.71;45.13
44131;BME280;29792;48.726;9.248;2023-04-27T08:35:20;97041.22;;;19.39;46.03
44131;BME280;29792;48.726;9.248;2023-04-27T08:37:46;97043.69;;;19.18;46.83
44131;BME280;29792;48.726;9.248;2023-04-27T08:40:12;97040.38;;;19.09;48.73
44131;BME280;29792;48.726;9.248;2023-04-27T08:42:39;97034.44;;;19.00;48.17
44131;BME280;29792;48.726;9.248;2023-04-27T08:45:06;97037.16;;;18.84;48.37
44131;BME280;29792;48.726;9.248;2023-04-27T08:47:32;97025.75;;;18.71;48.90
44131;BME280;29792;48.726;9.248;2023-04-27T08:49:58;97031.09;;;18.69;48.97
44131;BME280;29792;48.726;9.248;2023-04-27T08:52:23;97027.91;;;18.59;48.68
44131;BME280;29792;48.726;9.248;2023-04-27T08:54:48;97029.56;;;18.52;47.27
44131;BME280;29792;48.726;9.248;2023-04-27T08:57:14;97022.34;;;18.39;47.12
44131;BME280;29792;48.726;9.248;2023-04-27T08:59:40;97026.94;;;18.29;47.73
44131;BME280;29792;48.726;9.248;2023-04-27T09:02:06;97022.88;;;18.26;49.21
44131;BME280;29792;48.726;9.248;2023-04-27T09:04:41;97024.78;;;18.33;49.79
44131;BME280;29792;48.726;9.248;2023-04-27T09:09:36;97024.78;;;18.33;48.62
44131;BME280;29792;48.726;9.248;2023-04-27T09:12:15;97020.31;;;18.26;47.82
44131;BME280;29792;48.726;9.248;2023-04-27T09:14:41;97018.72;;;18.17;46.61
44131;BME280;29792;48.726;9.248;2023-04-27T09:17:07;97021.69;;;18.14;49.17
44131;BME280;29792;48.726;9.248;2023-04-27T09:19:32;97023.75;;;18.19;46.57
44131;BME280;29792;48.726;9.248;2023-04-27T09:22:08;97019.38;;;18.19;49.10
44131;BME280;29792;48.726;9.248;2023-04-27T09:24:35;97027.97;;;18.20;46.83
44131;BME280;29792;48.726;9.248;2023-04-27T09:27:00;97031.88;;;18.16;46.37
44131;BME280;29792;48.726;9.248;2023-04-27T09:29:37;97035.56;;;18.21;47.82
44131;BME280;29792;48.726;9.248;2023-04-27T09:32:16;97027.09;;;18.27;47.94
44131;BME280;29792;48.726;9.248;2023-04-27T09:34:41;97024.84;;;18.24;46.79
44131;BME280;29792;48.726;9.248;2023-04-27T09:37:08;97022.88;;;18.26;47.17
44131;BME280;29792;48.726;9.248;2023-04-27T09:39:34;97017.06;;;18.24;47.22
44131;BME280;29792;48.726;9.248;2023-04-27T09:42:00;97022.56;;;18.29;47.35
44131;BME280;29792;48.726;9.248;2023-04-27T09:44:27;97021.59;;;18.30;47.29
44131;BME280;29792;48.726;9.248;2023-04-27T09:46:54;97026.25;;;18.35;48.31
44131;BME280;29792;48.726;9.248;2023-04-27T09:49:22;97015.72;;;18.37;47.47
44131;BME280;29792;48.726;9.248;2023-04-27T09:51:47;97022.84;;;18.35;47.07
44131;BME280;29792;48.726;9.248;2023-04-27T09:54:13;97020.69;;;18.46;48.47
44131;BME280;29792;48.726;9.248;2023-04-27T09:56:49;97018.72;;;18.56;46.04
44131;BME280;29792;48.726;9.248;2023-04-27T10:02:01;97010.91;;;18.79;47.70
44131;BME280;29792;48.726;9.248;2023-04-27T10:07:38;97019.84;;;18.77;44.83
44131;BME280;29792;48.726;9.248;2023-04-27T10:10:05;97007.03;;;18.75;45.03
44131;BME280;29792;48.726;9.248;2023-04-27T10:12:35;97016.97;;;18.72;44.83
44131;BME280;29792;48.726;9.248;2023-04-27T10:15:11;97012.53;;;18.80;45.87
44131;BME280;29792;48.726;9.248;2023-04-27T10:17:37;97007.72;;;18.92;45.08
44131;BME280;29792;48.726;9.248;2023-04-27T10:20:04;97014.19;;;18.96;46.44
44131;BME280;29792;48.726;9.248;2023-04-27T10:22:38;97015.53;;;19.06;46.66
44131;BME280;29792;48.726;9.248;2023-04-27T10:25:21;97015.06;;;19.26;46.61
44131;BME280;29792;48.726;9.248;2023-04-27T10:27:57;97009.22;;;19.38;45.83
44131;BME280;29792;48.726;9.248;2023-04-27T10:30:25;97003.09;;;19.54;45.35
44131;BME280;29792;48.726;9.248;2023-04-27T10:35:18;97016.38;;;19.74;44.43
44131;BME280;29792;48.726;9.248;2023-04-27T10:37:44;97013.75;;;19.89;44.60
44131;BME280;29792;48.726;9.248;2023-04-27T10:40:11;97006.75;;;20.04;43.13
44131;BME280;29792;48.726;9.248;2023-04-27T10:42:41;97002.31;;;20.19;42.58
44131;BME280;29792;48.726;9.248;2023-04-27T10:45:07;97004.41;;;20.45;42.52
44131;BME280;29792;48.726;9.248;2023-04-27T10:47:57;97002.06;;;20.92;41.70
44131;BME280;29792;48.726;9.248;2023-04-27T10:50:23;96995.22;;;21.13;40.57
44131;BME280;29792;48.726;9.248;2023-04-27T10:52:48;96990.44;;;21.44;41.18
44131;BME280;29792;48.726;9.248;2023-04-27T10:55:17;96996.50;;;21.51;41.12
44131;BME280;29792;48.726;9.248;2023-04-27T10:57:50;96991.94;;;21.60;40.25
44131;BME280;29792;48.726;9.248;2023-04-27T11:02:49;96986.16;;;22.05;41.42
44131;BME280;29792;48.726;9.248;2023-04-27T11:05:24;96987.88;;;22.46;39.98
44131;BME280;29792;48.726;9.248;2023-04-27T11:08:05;96975.91;;;23.04;39.07
44131;BME280;29792;48.726;9.248;2023-04-27T11:10:31;96985.13;;;23.40;37.16
44131;BME280;29792;48.726;9.248;2023-04-27T11:12:56;96993.03;;;23.98;37.03
44131;BME280;29792;48.726;9.248;2023-04-27T11:15:22;96991.72;;;24.58;35.39
44131;BME280;29792;48.726;9.248;2023-04-27T11:17:47;96988.50;;;24.94;33.98
44131;BME280;29792;48.726;9.248;2023-04-27T11:20:12;96988.03;;;25.22;32.95
44131;BME280;29792;48.726;9.248;2023-04-27T11:22:44;96987.22;;;25.03;32.44
44131;BME280;29792;48.726;9.248;2023-04-27T11:25:10;96993.59;;;24.51;32.57
44131;BME280;29792;48.726;9.248;2023-04-27T11:27:37;96988.94;;;24.53;33.82
44131;BME280;29792;48.726;9.248;2023-04-27T11:30:03;96987.00;;;25.04;33.12
44131;BME280;29792;48.726;9.248;2023-04-27T11:32:28;96985.09;;;25.36;32.24
44131;BME280;29792;48.726;9.248;2023-04-27T11:34:54;96979.84;;;25.36;33.52
44131;BME280;29792;48.726;9.248;2023-04-27T11:37:24;96976.72;;;25.28;33.15
44131;BME280;29792;48.726;9.248;2023-04-27T11:39:50;96978.47;;;25.09;33.10
44131;BME280;29792;48.726;9.248;2023-04-27T11:42:22;96981.53;;;24.75;32.59
44131;BME280;29792;48.726;9.248;2023-04-27T11:44:52;96986.06;;;24.29;32.62
44131;BME280;29792;48.726;9.248;2023-04-27T11:47:18;96991.84;;;23.93;33.87
44131;BME280;29792;48.726;9.248;2023-04-27T11:49:48;96992.97;;;23.53;33.16
44131;BME280;29792;48.726;9.248;2023-04-27T11:52:16;96993.19;;;23.12;35.21
44131;BME280;29792;48.726;9.248;2023-04-27T11:54:49;96984.94;;;22.82;34.94
44131;BME280;29792;48.726;9.248;2023-04-27T11:57:15;96992.31;;;22.45;35.91
44131;BME280;29792;48.726;9.248;2023-04-27T11:59:41;96988.19;;;22.10;36.63
44131;BME280;29792;48.726;9.248;2023-04-27T12:02:07;96991.66;;;21.83;37.53
44131;BME280;29792;48.726;9.248;2023-04-27T12:04:33;96981.63;;;21.45;36.40
44131;BME280;29792;48.726;9.248;2023-04-27T12:07:00;96986.38;;;21.35;38.06
44131;BME280;29792;48.726;9.248;2023-04-27T12:09:25;96978.38;;;21.37;39.74
44131;BME280;29792;48.726;9.248;2023-04-27T12:11:52;96968.97;;;21.42;38.85
44131;BME280;29792;48.726;9.248;2023-04-27T12:14:18;96965.38;;;21.43;38.49
44131;BME280;29792;48.726;9.248;2023-04-27T12:16:44;96957.38;;;21.45;39.82
44131;BME280;29792;48.726;9.248;2023-04-27T12:19:09;96968.06;;;21.56;39.52
44131;BME280;29792;48.726;9.248;2023-04-27T12:21:34;96958.88;;;21.67;37.78
44131;BME280;29792;48.726;9.248;2023-04-27T12:23:59;96954.47;;;21.67;39.30
44131;BME280;29792;48.726;9.248;2023-04-27T12:26:25;96958.16;;;21.80;39.69
44131;BME280;29792;48.726;9.248;2023-04-27T12:28:51;96959.97;;;21.86;38.83
44131;BME280;29792;48.726;9.248;2023-04-27T12:31:17;96962.97;;;21.83;38.23
44131;BME280;29792;48.726;9.248;2023-04-27T12:33:48;96958.50;;;21.70;37.78
44131;BME280;29792;48.726;9.248;2023-04-27T12:36:15;96961.81;;;21.51;38.61
44131;BME280;29792;48.726;9.248;2023-04-27T12:38:40;96960.66;;;21.25;40.03
44131;BME280;29792;48.726;9.248;2023-04-27T12:41:06;96966.88;;;21.03;38.28
44131;BME280;29792;48.726;9.248;2023-04-27T12:43:31;96961.63;;;20.97;39.95
44131;BME280;29792;48.726;9.248;2023-04-27T12:45:56;96959.13;;;21.10;39.15
44131;BME280;29792;48.726;9.248;2023-04-27T12:48:22;96966.94;;;21.31;40.36
44131;BME280;29792;48.726;9.248;2023-04-27T12:50:47;96958.91;;;21.74;40.02
44131;BME280;29792;48.726;9.248;2023-04-27T12:53:12;96951.53;;;22.44;40.24
44131;BME280;29792;48.726;9.248;2023-04-27T12:55:38;96952.59;;;23.09;39.25
44131;BME280;29792;48.726;9.248;2023-04-27T12:58:03;96949.50;;;23.39;37.16
44131;BME280;29792;48.726;9.248;2023-04-27T13:00:31;96951.09;;;23.46;36.74
44131;BME280;29792;48.726;9.248;2023-04-27T13:02:58;96952.13;;;23.52;37.50
44131;BME280;29792;48.726;9.248;2023-04-27T13:05:23;96944.91;;;23.34;36.69
44131;BME280;29792;48.726;9.248;2023-04-27T13:07:48;96953.00;;;22.93;36.56
44131;BME280;29792;48.726;9.248;2023-04-27T13:10:14;96954.41;;;22.76;37.37
44131;BME280;29792;48.726;9.248;2023-04-27T13:12:39;96942.91;;;22.57;37.09